RJSY(METAR)
02/19 09:00
METAR RJSY 190000Z 13005KT CAVOK 04/00 Q1024 RMK A3025=
戻る
トップページへ戻る
IMOC Co,.Ltd.